createdAt,value
2022-08-22T00:00:53.894Z,3.23
2022-08-22T00:03:07.363Z,2.50
2022-08-22T00:03:09.777Z,3.20
2022-08-22T00:03:12.108Z,2.00
2022-08-22T00:03:42.007Z,2.87
2022-08-22T00:06:18.941Z,3.10
2022-08-22T00:08:57.926Z,2.90
2022-08-22T00:11:35.744Z,3.00
2022-08-22T00:14:14.447Z,2.60
2022-08-22T00:16:51.347Z,2.33
2022-08-22T00:19:31.832Z,2.80
2022-08-22T00:22:06.038Z,3.07
2022-08-22T00:24:41.652Z,2.80
2022-08-22T00:27:15.971Z,3.00
2022-08-22T00:29:48.378Z,3.40
2022-08-22T00:32:24.829Z,2.47
2022-08-22T00:34:59.518Z,2.67
2022-08-22T00:37:32.974Z,2.83
2022-08-22T00:40:13.641Z,2.87
2022-08-22T00:42:58.177Z,2.83
2022-08-22T00:45:53.841Z,2.80
2022-08-22T00:48:57.293Z,2.87
2022-08-22T00:51:51.550Z,3.20
2022-08-22T00:54:29.037Z,3.10
2022-08-22T00:57:18.354Z,2.70
2022-08-22T01:00:05.746Z,3.23
2022-08-22T01:02:52.445Z,3.37
2022-08-22T01:05:38.150Z,3.80
2022-08-22T01:08:23.043Z,3.30
2022-08-22T01:11:26.801Z,3.60
2022-08-22T01:14:11.838Z,3.20
2022-08-22T01:16:56.081Z,3.13
2022-08-22T01:19:57.495Z,3.20
2022-08-22T01:23:14.798Z,2.97
2022-08-22T01:26:13.369Z,3.40
2022-08-22T01:29:18.278Z,3.20
2022-08-22T01:32:49.755Z,2.60
2022-08-22T01:35:41.142Z,2.60
2022-08-22T01:38:33.539Z,3.37
2022-08-22T01:41:34.347Z,3.70
2022-08-22T01:44:18.574Z,3.77
2022-08-22T01:46:55.209Z,3.30
2022-08-22T01:49:28.887Z,3.07
2022-08-22T01:52:05.498Z,2.87
2022-08-22T01:54:44.816Z,3.07
2022-08-22T01:57:14.437Z,3.47
2022-08-22T01:59:45.367Z,3.57
2022-08-22T02:02:49.082Z,3.27
2022-08-22T02:05:27.026Z,3.90
2022-08-22T02:08:02.617Z,3.43
2022-08-22T02:10:48.402Z,4.10
2022-08-22T02:13:34.497Z,4.30
2022-08-22T02:16:09.487Z,4.17
2022-08-22T02:18:51.809Z,3.70
2022-08-22T02:21:27.364Z,4.27
2022-08-22T02:24:04.011Z,3.57
2022-08-22T02:26:45.028Z,3.40
2022-08-22T02:29:18.265Z,3.67
2022-08-22T02:31:54.831Z,3.50
2022-08-22T02:34:34.832Z,3.63
2022-08-22T02:37:09.870Z,3.90
2022-08-22T02:39:46.857Z,4.20
2022-08-22T02:42:24.816Z,3.30
2022-08-22T02:45:01.047Z,3.93
2022-08-22T02:47:36.462Z,3.70
2022-08-22T02:50:18.742Z,3.40
2022-08-22T02:52:58.648Z,3.83
2022-08-22T02:55:49.143Z,3.60
2022-08-22T02:58:36.453Z,3.43
2022-08-22T03:01:24.702Z,3.20
2022-08-22T03:04:14.098Z,3.10
2022-08-22T03:06:47.390Z,3.67
2022-08-22T03:09:28.734Z,2.90
2022-08-22T03:12:09.465Z,3.90
2022-08-22T03:14:44.572Z,4.17
2022-08-22T03:17:20.034Z,4.43
2022-08-22T03:19:57.322Z,5.00
2022-08-22T03:22:32.272Z,4.27
2022-08-22T03:25:08.269Z,4.17
2022-08-22T03:27:43.612Z,3.53
2022-08-22T03:30:20.173Z,3.70
2022-08-22T03:32:53.070Z,3.90
2022-08-22T03:35:38.741Z,4.30
2022-08-22T03:38:18.861Z,3.60
2022-08-22T03:41:12.911Z,4.07
2022-08-22T03:44:02.391Z,3.60
2022-08-22T03:47:03.412Z,3.80
2022-08-22T03:50:10.593Z,4.10
2022-08-22T03:53:15.339Z,3.87
2022-08-22T03:56:20.637Z,4.30
2022-08-22T03:59:29.598Z,4.30
2022-08-22T04:02:43.026Z,3.40
2022-08-22T04:05:36.267Z,3.70
2022-08-22T04:08:31.937Z,3.50
2022-08-22T04:11:21.493Z,3.53
2022-08-22T04:14:28.097Z,3.97
2022-08-22T04:17:24.493Z,4.20
2022-08-22T04:20:33.854Z,4.20
2022-08-22T04:23:28.411Z,3.70
2022-08-22T04:26:08.543Z,4.40
2022-08-22T04:28:45.526Z,4.30
2022-08-22T04:31:18.373Z,3.63
2022-08-22T04:33:58.304Z,4.00
2022-08-22T04:36:29.348Z,3.93
2022-08-22T04:39:01.665Z,3.67
2022-08-22T04:41:46.577Z,4.10
2022-08-22T04:44:18.104Z,4.03
2022-08-22T04:46:53.742Z,3.63
2022-08-22T04:49:31.947Z,4.07
2022-08-22T04:52:10.129Z,4.57
2022-08-22T04:54:52.267Z,4.03
2022-08-22T04:57:29.129Z,4.03
2022-08-22T05:00:00.431Z,3.37
2022-08-22T05:02:31.130Z,3.37
2022-08-22T05:05:04.104Z,3.70
2022-08-22T05:07:36.446Z,4.07
2022-08-22T05:10:12.076Z,4.40
2022-08-22T05:12:47.050Z,4.33
2022-08-22T05:15:23.170Z,4.47
2022-08-22T05:17:54.764Z,3.90
2022-08-22T05:20:26.041Z,4.27
2022-08-22T05:22:57.536Z,4.00
2022-08-22T05:25:29.334Z,4.97
2022-08-22T05:28:10.555Z,4.50
2022-08-22T05:30:39.973Z,5.10
2022-08-22T05:33:17.530Z,4.57
2022-08-22T05:35:55.851Z,4.53
2022-08-22T05:38:31.610Z,4.40
2022-08-22T05:41:05.095Z,4.50
2022-08-22T05:43:39.082Z,4.53
2022-08-22T05:46:10.310Z,4.20
2022-08-22T05:48:44.658Z,3.93
2022-08-22T05:51:18.978Z,4.00
2022-08-22T05:53:52.001Z,4.20
2022-08-22T05:56:28.341Z,4.40
2022-08-22T05:59:02.779Z,3.70
2022-08-22T06:01:39.865Z,3.83
2022-08-22T06:04:16.474Z,3.57
2022-08-22T06:06:53.321Z,3.57
2022-08-22T06:09:34.878Z,3.10
2022-08-22T06:12:16.482Z,3.23
2022-08-22T06:14:58.246Z,3.47
2022-08-22T06:17:32.136Z,3.90
2022-08-22T06:20:01.749Z,2.87
2022-08-22T06:22:34.880Z,3.53
2022-08-22T06:25:08.706Z,3.10
2022-08-22T06:27:37.852Z,3.50
2022-08-22T06:30:08.066Z,4.10
2022-08-22T06:32:59.018Z,3.90
2022-08-22T06:35:53.681Z,3.90
2022-08-22T06:38:24.605Z,3.73
2022-08-22T06:40:54.410Z,3.70
2022-08-22T06:43:24.686Z,3.87
2022-08-22T06:45:53.950Z,3.70
2022-08-22T06:48:24.222Z,3.67
2022-08-22T06:50:58.579Z,3.20
2022-08-22T06:53:30.745Z,3.37
2022-08-22T06:56:05.461Z,2.80
2022-08-22T06:58:38.213Z,3.50
2022-08-22T07:01:12.196Z,3.23
2022-08-22T07:03:45.586Z,2.67
2022-08-22T07:06:18.109Z,2.90
2022-08-22T07:08:47.535Z,2.60
2022-08-22T07:11:21.738Z,2.63
2022-08-22T07:13:57.106Z,2.80
2022-08-22T07:16:31.186Z,2.80
2022-08-22T07:18:59.960Z,2.57
2022-08-22T07:21:36.098Z,2.60
2022-08-22T07:24:05.141Z,2.90
2022-08-22T07:26:44.253Z,2.53
2022-08-22T07:29:21.446Z,2.77
2022-08-22T07:31:56.309Z,2.57
2022-08-22T07:34:43.235Z,2.57
2022-08-22T07:37:18.968Z,2.30
2022-08-22T07:39:53.769Z,2.40
2022-08-22T07:42:30.077Z,2.37
2022-08-22T07:45:07.635Z,2.50
2022-08-22T07:47:55.345Z,2.93
2022-08-22T07:50:28.395Z,2.77
2022-08-22T07:53:06.257Z,2.50
2022-08-22T07:55:34.930Z,2.40
2022-08-22T07:58:17.974Z,2.57
2022-08-22T08:00:49.841Z,2.30
2022-08-22T08:03:24.155Z,2.27
2022-08-22T08:05:53.423Z,2.13
2022-08-22T08:08:26.598Z,2.50
2022-08-22T08:10:58.276Z,2.47
2022-08-22T08:13:36.404Z,2.23
2022-08-22T08:16:07.506Z,2.50
2022-08-22T08:18:37.280Z,2.90
2022-08-22T08:21:10.639Z,2.50
2022-08-22T08:23:45.990Z,2.57
2022-08-22T08:26:18.229Z,2.50
2022-08-22T08:28:48.770Z,2.90
2022-08-22T08:31:24.791Z,2.83
2022-08-22T08:33:59.581Z,3.33
2022-08-22T08:36:37.867Z,2.23
2022-08-22T08:39:19.654Z,2.30
2022-08-22T08:42:57.701Z,2.23
2022-08-22T08:45:37.701Z,2.67
2022-08-22T08:48:33.147Z,2.50
2022-08-22T08:51:24.343Z,2.37
2022-08-22T08:54:30.503Z,2.43
2022-08-22T08:57:06.782Z,2.60
2022-08-22T08:59:45.558Z,2.70
2022-08-22T09:02:38.741Z,2.53
2022-08-22T09:05:36.861Z,2.50
2022-08-22T09:08:36.501Z,2.30
2022-08-22T09:11:36.710Z,2.33
2022-08-22T09:14:23.084Z,2.30
2022-08-22T09:17:24.179Z,2.47
2022-08-22T09:20:19.473Z,2.40
2022-08-22T09:23:23.312Z,2.67
2022-08-22T09:25:55.922Z,2.03
2022-08-22T09:28:30.665Z,2.37
2022-08-22T09:31:46.479Z,2.43
2022-08-22T09:34:25.502Z,2.13
2022-08-22T09:37:07.873Z,2.57
2022-08-22T09:39:43.745Z,2.13
2022-08-22T09:42:19.190Z,2.23
2022-08-22T09:45:00.394Z,2.53
2022-08-22T09:47:33.211Z,2.67
2022-08-22T09:50:13.650Z,2.10
2022-08-22T09:52:54.703Z,2.27
2022-08-22T09:55:39.281Z,2.87
2022-08-22T09:58:17.326Z,2.10
2022-08-22T10:00:56.174Z,2.20
2022-08-22T10:03:33.771Z,2.37
2022-08-22T10:06:05.824Z,2.40
2022-08-22T10:08:46.029Z,2.10
2022-08-22T10:11:26.794Z,2.10
2022-08-22T10:14:02.356Z,1.97
2022-08-22T10:16:54.501Z,2.07
2022-08-22T10:19:29.622Z,2.20
2022-08-22T10:22:30.846Z,2.00
2022-08-22T10:25:14.230Z,2.17
2022-08-22T10:28:10.335Z,1.77
2022-08-22T10:30:48.474Z,2.40
2022-08-22T10:33:25.718Z,2.40
2022-08-22T10:36:04.985Z,2.17
2022-08-22T10:38:44.244Z,2.20
2022-08-22T10:41:27.050Z,2.20
2022-08-22T10:44:04.275Z,2.30
2022-08-22T10:46:39.665Z,2.63
2022-08-22T10:49:19.587Z,2.20
2022-08-22T10:51:52.801Z,2.30
2022-08-22T10:54:39.717Z,2.17
2022-08-22T10:57:27.797Z,2.73
2022-08-22T11:00:03.326Z,2.30
2022-08-22T11:02:46.708Z,2.37
2022-08-22T11:05:38.156Z,2.37
2022-08-22T11:09:01.701Z,2.20
2022-08-22T11:11:42.159Z,2.50
2022-08-22T11:14:58.302Z,2.17
2022-08-22T11:17:53.988Z,2.30
2022-08-22T11:20:29.475Z,2.00
2022-08-22T11:23:19.017Z,2.03
2022-08-22T11:25:57.334Z,2.10
2022-08-22T11:29:07.846Z,2.00
2022-08-22T11:31:51.602Z,2.10
2022-08-22T11:34:33.590Z,2.30
2022-08-22T11:37:11.024Z,2.27
2022-08-22T11:39:48.595Z,2.13
2022-08-22T11:42:23.661Z,2.20
2022-08-22T11:44:55.377Z,2.50
2022-08-22T11:47:29.423Z,2.40
2022-08-22T11:50:02.248Z,2.07
2022-08-22T11:52:53.652Z,2.00
2022-08-22T11:55:32.605Z,2.40
2022-08-22T11:58:18.142Z,2.40
2022-08-22T12:00:56.356Z,2.27
2022-08-22T12:03:55.886Z,2.40
2022-08-22T12:06:51.671Z,2.50
2022-08-22T12:09:31.775Z,2.13
2022-08-22T12:12:19.726Z,2.27
2022-08-22T12:14:55.088Z,3.00
2022-08-22T12:17:54.996Z,2.40
2022-08-22T12:20:46.936Z,2.50
2022-08-22T12:23:51.621Z,2.37
2022-08-22T12:26:30.474Z,2.40
2022-08-22T12:29:18.973Z,2.10
2022-08-22T12:32:44.049Z,2.17
2022-08-22T12:35:30.615Z,1.90
2022-08-22T12:38:26.640Z,2.27
2022-08-22T12:41:28.116Z,1.90
2022-08-22T12:44:18.965Z,2.10
2022-08-22T12:47:04.291Z,2.17
2022-08-22T12:49:52.428Z,2.27
2022-08-22T12:52:37.013Z,2.37
2022-08-22T12:55:32.616Z,2.10
2022-08-22T12:58:09.267Z,2.10
2022-08-22T13:00:43.842Z,1.93
2022-08-22T13:03:24.194Z,2.07
2022-08-22T13:06:00.331Z,1.97
2022-08-22T13:08:32.194Z,2.10
2022-08-22T13:11:03.154Z,1.80
2022-08-22T13:13:40.239Z,2.00
2022-08-22T13:16:15.464Z,1.90
2022-08-22T13:18:52.871Z,2.23
2022-08-22T13:21:30.342Z,2.07
2022-08-22T13:24:10.572Z,2.03
2022-08-22T13:26:49.140Z,2.23
2022-08-22T13:29:39.463Z,2.53
2022-08-22T13:32:20.894Z,2.00
2022-08-22T13:34:55.697Z,2.20
2022-08-22T13:37:26.825Z,2.07
2022-08-22T13:39:59.823Z,2.33
2022-08-22T13:42:30.978Z,2.50
2022-08-22T13:45:04.747Z,2.57
2022-08-22T13:47:47.967Z,2.37
2022-08-22T13:50:22.181Z,2.30
2022-08-22T13:52:56.463Z,2.40
2022-08-22T13:55:30.795Z,2.30
2022-08-22T13:58:11.374Z,2.07
2022-08-22T14:01:05.505Z,2.17
2022-08-22T14:03:40.629Z,2.20
2022-08-22T14:06:38.055Z,2.27
2022-08-22T14:09:17.312Z,2.10
2022-08-22T14:12:11.935Z,2.27
2022-08-22T14:14:46.148Z,2.60
2022-08-22T14:17:21.370Z,2.43
2022-08-22T14:19:59.577Z,2.50
2022-08-22T14:22:35.077Z,2.27
2022-08-22T14:25:08.606Z,2.30
2022-08-22T14:27:39.928Z,2.10
2022-08-22T14:30:16.371Z,2.10
2022-08-22T14:32:49.107Z,1.93
2022-08-22T14:35:31.411Z,2.40
2022-08-22T14:38:17.997Z,1.93
2022-08-22T14:40:48.166Z,2.20
2022-08-22T14:43:22.777Z,2.37
2022-08-22T14:46:01.004Z,2.20
2022-08-22T14:48:40.548Z,1.93
2022-08-22T14:51:19.220Z,2.20
2022-08-22T14:53:50.022Z,1.80
2022-08-22T14:56:22.666Z,2.07
2022-08-22T14:58:52.671Z,2.33
2022-08-22T15:01:23.220Z,2.00
2022-08-22T15:03:55.899Z,2.07
2022-08-22T15:06:48.221Z,1.90
2022-08-22T15:09:28.959Z,1.93
2022-08-22T15:11:59.681Z,2.00
2022-08-22T15:14:45.350Z,2.00
2022-08-22T15:17:37.213Z,2.00
2022-08-22T15:20:13.755Z,2.00
2022-08-22T15:22:46.695Z,2.20
2022-08-22T15:25:19.397Z,2.23
2022-08-22T15:27:53.753Z,1.73
2022-08-22T15:30:35.248Z,2.00
2022-08-22T15:33:12.438Z,2.00
2022-08-22T15:35:42.479Z,1.90
2022-08-22T15:38:31.484Z,2.03
2022-08-22T15:41:31.212Z,1.90
2022-08-22T15:44:08.286Z,2.30
2022-08-22T15:46:45.920Z,2.07
2022-08-22T15:49:27.672Z,2.03
2022-08-22T15:52:11.199Z,2.17
2022-08-22T15:55:15.773Z,2.23
2022-08-22T15:57:51.329Z,1.80
2022-08-22T16:00:30.015Z,1.70
2022-08-22T16:03:02.286Z,2.07
2022-08-22T16:05:43.795Z,1.90
2022-08-22T16:08:14.924Z,2.03
2022-08-22T16:10:48.503Z,2.07
2022-08-22T16:13:37.986Z,2.30
2022-08-22T16:16:10.182Z,2.10
2022-08-22T16:19:15.326Z,2.00
2022-08-22T16:22:12.203Z,2.00
2022-08-22T16:25:17.101Z,2.07
2022-08-22T16:27:57.328Z,2.30
2022-08-22T16:30:35.840Z,1.93
2022-08-22T16:33:06.871Z,1.87
2022-08-22T16:36:23.286Z,2.50
2022-08-22T16:38:54.490Z,1.80
2022-08-22T16:41:31.306Z,2.03
2022-08-22T16:44:24.420Z,2.10
2022-08-22T16:46:55.518Z,1.90
2022-08-22T16:49:30.835Z,2.33
2022-08-22T16:52:36.086Z,2.20
2022-08-22T16:55:07.145Z,1.90
2022-08-22T16:57:59.288Z,1.93
2022-08-22T17:00:42.056Z,2.23
2022-08-22T17:03:21.448Z,1.83
2022-08-22T17:05:59.454Z,1.87
2022-08-22T17:08:45.113Z,1.90
2022-08-22T17:11:25.410Z,2.10
2022-08-22T17:14:20.637Z,1.77
2022-08-22T17:17:00.421Z,1.90
2022-08-22T17:19:40.811Z,2.20
2022-08-22T17:22:22.602Z,2.23
2022-08-22T17:25:09.914Z,2.00
2022-08-22T17:27:41.288Z,2.10
2022-08-22T17:30:14.389Z,1.70
2022-08-22T17:33:07.541Z,2.03
2022-08-22T17:35:51.303Z,2.10
2022-08-22T17:38:30.954Z,2.10
2022-08-22T17:41:08.582Z,1.87
2022-08-22T17:43:49.002Z,1.80
2022-08-22T17:46:35.522Z,2.00
2022-08-22T17:49:17.700Z,2.17
2022-08-22T17:51:54.197Z,2.00
2022-08-22T17:54:29.982Z,1.87
2022-08-22T17:57:05.697Z,2.53
2022-08-22T17:59:40.258Z,2.10
2022-08-22T18:02:16.378Z,2.40
2022-08-22T18:04:52.742Z,2.03
2022-08-22T18:07:35.561Z,2.10
2022-08-22T18:10:10.878Z,1.83
2022-08-22T18:12:45.404Z,2.33
2022-08-22T18:15:22.471Z,2.20
2022-08-22T18:17:55.615Z,2.00
2022-08-22T18:20:30.368Z,1.97
2022-08-22T18:23:04.633Z,2.30
2022-08-22T18:26:03.122Z,2.17
2022-08-22T18:28:40.170Z,2.30
2022-08-22T18:31:10.326Z,2.03
2022-08-22T18:33:44.653Z,2.50
2022-08-22T18:36:24.598Z,2.30
2022-08-22T18:38:58.293Z,2.37
2022-08-22T18:41:33.369Z,2.20
2022-08-22T18:44:09.822Z,2.10
2022-08-22T18:46:45.321Z,2.37
2022-08-22T18:49:35.433Z,2.43
2022-08-22T18:52:21.030Z,2.23
2022-08-22T18:55:18.273Z,2.60
2022-08-22T18:58:03.271Z,2.23
2022-08-22T19:00:49.716Z,2.37
2022-08-22T19:03:29.573Z,1.90
2022-08-22T19:06:31.395Z,2.20
2022-08-22T19:09:32.651Z,2.53
2022-08-22T19:12:15.710Z,2.50
2022-08-22T19:14:59.626Z,2.30
2022-08-22T19:17:59.452Z,2.37
2022-08-22T19:20:47.809Z,2.40
2022-08-22T19:23:45.403Z,2.40
2022-08-22T19:26:28.776Z,2.33
2022-08-22T19:29:00.264Z,2.43
2022-08-22T19:31:46.958Z,2.23
2022-08-22T19:34:22.022Z,2.40
2022-08-22T19:37:30.786Z,2.07
2022-08-22T19:40:04.487Z,2.80
2022-08-22T19:42:39.713Z,2.53
2022-08-22T19:45:21.021Z,2.20
2022-08-22T19:47:59.290Z,2.13
2022-08-22T19:50:32.774Z,2.13
2022-08-22T19:53:24.378Z,2.33
2022-08-22T19:56:03.502Z,2.10
2022-08-22T19:58:52.272Z,2.00
2022-08-22T20:01:49.767Z,3.03
2022-08-22T20:04:42.956Z,2.27
2022-08-22T20:07:24.206Z,2.90
2022-08-22T20:10:01.206Z,2.40
2022-08-22T20:12:37.239Z,2.37
2022-08-22T20:15:17.828Z,2.50
2022-08-22T20:18:11.676Z,2.77
2022-08-22T20:20:57.778Z,2.17
2022-08-22T20:23:30.426Z,2.83
2022-08-22T20:25:59.038Z,2.50
2022-08-22T20:28:40.364Z,2.70
2022-08-22T20:31:19.323Z,2.60
2022-08-22T20:33:54.674Z,2.53
2022-08-22T20:36:27.592Z,2.40
2022-08-22T20:39:00.969Z,2.40
2022-08-22T20:41:35.555Z,2.90
2022-08-22T20:44:12.245Z,2.43
2022-08-22T20:46:53.442Z,2.33
2022-08-22T20:49:25.847Z,2.40
2022-08-22T20:51:57.712Z,2.67
2022-08-22T20:54:27.951Z,2.77
2022-08-22T20:57:00.113Z,2.90
2022-08-22T20:59:36.829Z,2.63
2022-08-22T21:02:15.144Z,3.07
2022-08-22T21:04:52.736Z,2.90
2022-08-22T21:07:31.357Z,2.33
2022-08-22T21:10:22.782Z,3.03
2022-08-22T21:13:10.189Z,2.70
2022-08-22T21:15:41.053Z,2.90
2022-08-22T21:18:10.975Z,2.70
2022-08-22T21:20:41.250Z,2.60
2022-08-22T21:23:15.028Z,2.93
2022-08-22T21:25:56.543Z,2.83
2022-08-22T21:28:34.077Z,2.70
2022-08-22T21:31:14.438Z,2.73
2022-08-22T21:33:44.769Z,2.77
2022-08-22T21:36:21.388Z,2.20
2022-08-22T21:38:54.171Z,2.63
2022-08-22T21:41:27.477Z,2.70
2022-08-22T21:43:55.694Z,2.60
2022-08-22T21:46:29.669Z,2.70
2022-08-22T21:49:04.695Z,2.20
2022-08-22T21:51:43.744Z,2.47
2022-08-22T21:54:39.572Z,2.40
2022-08-22T21:57:20.781Z,2.57
2022-08-22T21:59:59.489Z,2.00
2022-08-22T22:02:37.343Z,1.93
2022-08-22T22:05:10.376Z,2.20
2022-08-22T22:07:42.677Z,2.20
2022-08-22T22:10:13.375Z,2.17
2022-08-22T22:12:42.339Z,1.90
2022-08-22T22:15:13.644Z,1.77
2022-08-22T22:17:41.825Z,2.03
2022-08-22T22:20:10.578Z,2.00
2022-08-22T22:22:46.276Z,1.97
2022-08-22T22:25:38.997Z,1.80
2022-08-22T22:28:06.174Z,1.57
2022-08-22T22:30:34.569Z,1.90
2022-08-22T22:33:02.663Z,1.90
2022-08-22T22:35:31.258Z,1.80
2022-08-22T22:38:01.110Z,2.00
2022-08-22T22:40:29.565Z,1.80
2022-08-22T22:42:57.692Z,1.93
2022-08-22T22:45:25.793Z,1.73
2022-08-22T22:47:53.895Z,1.97
2022-08-22T22:50:22.000Z,1.80
2022-08-22T22:52:50.150Z,1.47
2022-08-22T22:55:24.543Z,1.60
2022-08-22T22:57:59.219Z,1.70
2022-08-22T23:00:30.775Z,1.60
2022-08-22T23:03:01.005Z,1.80
2022-08-22T23:05:29.685Z,1.90
2022-08-22T23:07:58.619Z,1.90
2022-08-22T23:10:29.534Z,1.80
2022-08-22T23:12:57.638Z,1.90
2022-08-22T23:15:25.770Z,2.00
2022-08-22T23:17:54.197Z,1.30
2022-08-22T23:20:22.300Z,1.70
2022-08-22T23:22:50.750Z,1.47
2022-08-22T23:25:18.937Z,2.03
2022-08-22T23:27:48.752Z,1.70
2022-08-22T23:30:21.069Z,1.97
2022-08-22T23:32:49.173Z,1.40
2022-08-22T23:35:17.335Z,1.60
2022-08-22T23:37:45.432Z,1.80
2022-08-22T23:40:13.734Z,1.60
2022-08-22T23:42:41.911Z,1.60
2022-08-22T23:45:11.724Z,1.70
2022-08-22T23:47:39.881Z,1.90
2022-08-22T23:50:08.417Z,1.53
2022-08-22T23:52:36.477Z,1.63
2022-08-22T23:55:05.214Z,1.53
2022-08-22T23:57:33.310Z,1.63
